Time;durP1;ratioP1;P1;durP2;ratioP2;P2;SDS_P1;SDS_P2;PMS_P1;PMS_P2;Temp;Humidity;BMP_temperature;BMP_pressure;BME280_temperature;BME280_humidity;BME280_pressure;Samples;Min_cycle;Max_cycle;Signal;HPM_P1;HPM_P2
2022/03/18 00:02:08;;;;;;;;;22.25;22.00;;;;;10.46;55.57;102863.16;5076144;27;45621;-69
2022/03/18 00:04:33;;;;;;;;;19.75;17.50;;;;;10.45;55.16;102863.16;5092168;27;45458;-71
2022/03/18 00:06:59;;;;;;;;;22.50;21.50;;;;;10.47;54.93;102866.66;5075134;27;45454;-68
2022/03/18 00:09:24;;;;;;;;;27.50;24.25;;;;;10.46;55.54;102857.03;5076228;27;45406;-70
2022/03/18 00:11:50;;;;;;;;;22.25;22.25;;;;;10.43;54.99;102859.66;5075934;28;45460;-68
2022/03/18 00:14:15;;;;;;;;;22.25;20.75;;;;;10.38;55.14;102864.91;5076375;27;45406;-68
2022/03/18 00:16:41;;;;;;;;;21.75;21.75;;;;;10.31;54.91;102865.75;5076404;27;45386;-68
2022/03/18 00:19:07;;;;;;;;;21.75;20.50;;;;;10.25;54.76;102863.09;5076539;28;45668;-68
2022/03/18 00:21:36;;;;;;;;;21.50;18.75;;;;;10.24;55.27;102862.22;5076092;28;46279;-69
2022/03/18 00:24:03;;;;;;;;;24.00;22.25;;;;;10.26;55.33;102865.75;5074535;27;45380;-69
2022/03/18 00:26:29;;;;;;;;;25.50;23.00;;;;;10.28;55.16;102860.50;5076131;27;45475;-68
2022/03/18 00:28:54;;;;;;;;;25.75;22.25;;;;;10.30;54.53;102859.63;5075760;27;45382;-68
2022/03/18 00:31:19;;;;;;;;;22.50;20.50;;;;;10.30;55.27;102862.25;5075960;27;50048;-69
2022/03/18 00:33:45;;;;;;;;;27.00;24.00;;;;;10.30;55.47;102864.88;5074791;28;45466;-69
2022/03/18 00:36:10;;;;;;;;;22.00;21.50;;;;;10.31;55.19;102871.00;5076198;27;45428;-68
2022/03/18 00:38:36;;;;;;;;;28.75;27.75;;;;;10.28;55.38;102879.78;5076303;27;45480;-69
2022/03/18 00:41:02;;;;;;;;;21.25;21.00;;;;;10.28;55.06;102868.38;5075927;27;45501;-68
2022/03/18 00:43:27;;;;;;;;;22.75;22.75;;;;;10.25;55.03;102870.97;5075631;28;45490;-69
2022/03/18 00:45:52;;;;;;;;;26.75;25.50;;;;;10.25;55.70;102871.84;5076294;28;45366;-69
2022/03/18 00:53:47;;;;;;;;;28.50;24.00;;;;;10.21;55.59;102872.72;5076032;28;45465;-69
2022/03/18 00:56:12;;;;;;;;;30.25;27.00;;;;;10.22;55.60;102868.34;5075619;28;45325;-69
2022/03/18 00:58:38;;;;;;;;;25.25;22.50;;;;;10.22;55.59;102869.22;5075984;27;45373;-68
2022/03/18 01:01:03;;;;;;;;;26.25;26.25;;;;;10.18;55.59;102865.72;5075281;28;45706;-68
2022/03/18 01:03:29;;;;;;;;;27.25;25.50;;;;;10.17;55.58;102865.69;5075395;28;45426;-68
2022/03/18 01:05:54;;;;;;;;;28.25;26.50;;;;;10.17;55.85;102866.56;5076063;27;45400;-68
2022/03/18 01:08:19;;;;;;;;;31.75;27.00;;;;;10.18;55.48;102865.72;5075963;27;45620;-68
2022/03/18 01:10:45;;;;;;;;;26.00;22.00;;;;;10.16;55.94;102867.44;5075782;27;46135;-68
2022/03/18 01:13:11;;;;;;;;;27.25;23.25;;;;;10.18;56.39;102872.69;5071303;27;45537;-68
2022/03/18 01:15:36;;;;;;;;;26.00;26.00;;;;;10.19;55.90;102874.47;5071451;28;45488;-67
2022/03/18 01:18:02;;;;;;;;;28.75;26.25;;;;;10.18;55.94;102877.97;5075752;27;45291;-68
2022/03/18 01:20:28;;;;;;;;;25.25;22.50;;;;;10.16;56.08;102870.09;5075441;28;45493;-68
2022/03/18 01:22:53;;;;;;;;;33.25;24.50;;;;;10.18;56.17;102873.59;5074364;27;45432;-68
2022/03/18 01:25:19;;;;;;;;;29.50;27.25;;;;;10.20;55.82;102881.47;5075031;27;45551;-68
2022/03/18 01:27:44;;;;;;;;;30.25;25.75;;;;;10.19;55.88;102885.00;5075549;27;45403;-68
2022/03/18 01:30:11;;;;;;;;;34.00;29.25;;;;;10.14;55.92;102877.09;5075365;27;46024;-68
2022/03/18 01:32:36;;;;;;;;;27.25;27.25;;;;;10.17;56.27;102890.22;5075105;27;45524;-69
2022/03/18 01:35:02;;;;;;;;;36.50;32.25;;;;;10.13;55.66;102879.72;5077421;27;45437;-69
2022/03/18 01:37:27;;;;;;;;;35.75;28.75;;;;;10.12;56.23;102885.84;5079003;27;45703;-69
2022/03/18 01:39:52;;;;;;;;;10.00;5.75;;;;;10.12;56.33;102883.22;5078828;27;45371;-69
2022/03/18 01:42:18;;;;;;;;;35.25;27.75;;;;;10.12;56.44;102891.09;5078867;28;45488;-69
2022/03/18 01:44:47;;;;;;;;;31.25;26.50;;;;;10.10;55.73;102882.31;5079005;27;45425;-69
2022/03/18 01:47:12;;;;;;;;;29.75;28.25;;;;;10.10;56.04;102883.22;5078140;28;45422;-69
2022/03/18 01:49:38;;;;;;;;;27.75;21.75;;;;;10.10;56.12;102880.59;5078747;27;45428;-69
2022/03/18 01:52:06;;;;;;;;;27.75;26.50;;;;;10.07;56.20;102880.56;5078520;27;45421;-69
2022/03/18 01:54:44;;;;;;;;;32.00;30.25;;;;;10.09;56.38;102881.44;5078653;27;45519;-69
2022/03/18 01:57:09;;;;;;;;;28.50;28.25;;;;;10.05;56.00;102889.34;5077385;27;45587;-69
2022/03/18 01:59:34;;;;;;;;;34.00;32.50;;;;;10.05;56.54;102886.72;5078379;27;45544;-69
2022/03/18 02:02:00;;;;;;;;;30.50;29.50;;;;;10.05;56.12;102882.31;5078400;27;45442;-69
2022/03/18 02:04:25;;;;;;;;;26.75;25.00;;;;;10.06;56.28;102876.19;5078694;27;45549;-69
2022/03/18 02:06:51;;;;;;;;;32.75;28.75;;;;;10.07;56.22;102877.06;5078365;27;45685;-69
2022/03/18 02:09:17;;;;;;;;;27.75;27.75;;;;;10.06;55.63;102883.19;5078111;27;45500;-69
2022/03/18 02:11:43;;;;;;;;;29.50;27.75;;;;;10.04;55.97;102885.81;5078165;28;45500;-69
2022/03/18 02:14:09;;;;;;;;;24.25;24.25;;;;;10.05;55.63;102876.19;5078238;28;45552;-69
2022/03/18 02:16:34;;;;;;;;;32.25;26.75;;;;;10.05;55.62;102886.72;5078032;28;45532;-69
2022/03/18 02:19:00;;;;;;;;;27.50;26.50;;;;;10.05;56.07;102876.19;5077814;28;45387;-69
2022/03/18 02:21:28;;;;;;;;;30.50;28.50;;;;;10.02;55.64;102877.06;5076727;27;45445;-69
2022/03/18 02:23:53;;;;;;;;;33.25;30.25;;;;;10.02;55.99;102878.78;5077970;28;45434;-69
2022/03/18 02:26:19;;;;;;;;;29.00;26.75;;;;;9.96;55.97;102882.28;5076606;27;45622;-69
2022/03/18 02:28:44;;;;;;;;;27.25;27.25;;;;;9.98;56.06;102884.91;5077975;27;46372;-69
2022/03/18 02:31:10;;;;;;;;;31.00;26.50;;;;;9.98;56.00;102888.41;5077443;28;45385;-68
2022/03/18 02:33:35;;;;;;;;;32.25;30.25;;;;;9.89;55.73;102885.78;5078415;27;45429;-69
2022/03/18 02:36:00;;;;;;;;;32.75;28.25;;;;;9.85;55.90;102879.59;5078187;28;45640;-69
2022/03/18 02:38:26;;;;;;;;;36.25;34.75;;;;;9.85;55.90;102881.34;5076544;28;45746;-69
2022/03/18 02:40:51;;;;;;;;;33.75;29.50;;;;;9.83;56.10;102873.47;5077567;28;45374;-69
2022/03/18 02:43:16;;;;;;;;;34.25;34.00;;;;;9.82;56.05;102878.72;5077693;27;45425;-69
2022/03/18 02:45:42;;;;;;;;;36.00;32.25;;;;;9.83;56.45;102869.94;5077779;27;45474;-69
2022/03/18 02:48:07;;;;;;;;;28.50;27.25;;;;;9.85;56.35;102873.47;5076473;28;47087;-69
2022/03/18 02:50:33;;;;;;;;;25.25;24.00;;;;;9.84;56.28;102864.72;5077576;28;45529;-69
2022/03/18 02:52:59;;;;;;;;;32.00;30.75;;;;;9.86;56.08;102876.13;5077824;28;45376;-69
2022/03/18 02:55:26;;;;;;;;;35.00;29.25;;;;;9.84;55.79;102874.34;5076339;28;45638;-69
2022/03/18 02:57:51;;;;;;;;;29.25;28.25;;;;;9.86;56.15;102881.38;5076762;28;45679;-69
2022/03/18 03:00:17;;;;;;;;;36.00;32.75;;;;;9.86;56.15;102876.13;5076229;27;45526;-68
2022/03/18 03:02:42;;;;;;;;;41.00;35.50;;;;;9.85;56.20;102878.72;5077088;28;45879;-69
2022/03/18 03:08:01;;;;;;;;;33.50;28.50;;;;;9.86;57.48;102888.34;5077340;28;45523;-69
2022/03/18 03:10:28;;;;;;;;;35.50;33.50;;;;;9.88;56.26;102881.38;5076417;27;45480;-69
2022/03/18 03:12:54;;;;;;;;;36.00;32.25;;;;;9.85;56.15;102886.59;5076674;27;45361;-69
2022/03/18 03:15:19;;;;;;;;;38.50;34.00;;;;;9.86;56.10;102885.72;5077190;27;45562;-69
2022/03/18 03:17:45;;;;;;;;;39.25;32.50;;;;;9.85;56.35;102887.47;5077167;28;45327;-69
2022/03/18 03:20:11;;;;;;;;;35.00;34.00;;;;;9.84;55.94;102888.38;5075877;28;45478;-69
2022/03/18 03:22:36;;;;;;;;;39.50;36.25;;;;;9.83;56.15;102894.50;5077065;27;45557;-69
2022/03/18 03:25:02;;;;;;;;;37.00;35.00;;;;;9.81;55.79;102898.00;5076979;28;45413;-69
2022/03/18 03:27:29;;;;;;;;;38.25;34.25;;;;;9.78;55.84;102904.13;5076878;28;46204;-69
2022/03/18 03:30:00;;;;;;;;;38.50;34.25;;;;;9.76;55.51;102905.84;5077212;27;45485;-69
2022/03/18 03:32:26;;;;;;;;;47.25;39.25;;;;;9.72;56.00;102918.09;5076532;27;45503;-69
2022/03/18 03:34:52;;;;;;;;;29.75;27.50;;;;;9.67;55.86;102925.06;5076977;28;45445;-69
2022/03/18 03:37:17;;;;;;;;;38.75;37.50;;;;;9.64;55.71;102911.03;5076323;27;45372;-69
2022/03/18 03:39:42;;;;;;;;;37.50;34.75;;;;;9.57;56.33;102925.00;5076480;27;45322;-69
2022/03/18 03:42:08;;;;;;;;;38.75;36.50;;;;;9.57;56.93;102914.50;5076284;28;45424;-69
2022/03/18 03:44:33;;;;;;;;;43.00;38.50;;;;;9.58;56.27;102914.50;5076856;27;45483;-69
2022/03/18 03:46:58;;;;;;;;;43.75;38.00;;;;;9.56;56.34;102910.09;5076857;28;45426;-69
2022/03/18 03:49:24;;;;;;;;;39.75;36.00;;;;;9.57;56.26;102904.00;5075574;27;46017;-69
2022/03/18 03:51:49;;;;;;;;;44.75;39.25;;;;;9.56;56.51;102910.09;5075237;27;45425;-68
2022/03/18 03:54:14;;;;;;;;;42.50;38.00;;;;;9.51;56.54;102907.47;5076965;28;45517;-68
2022/03/18 03:56:40;;;;;;;;;45.00;38.00;;;;;9.51;56.63;102910.97;5075863;28;46257;-69
2022/03/18 03:59:05;;;;;;;;;46.50;38.75;;;;;9.53;56.54;102910.97;5076241;28;45481;-69
2022/03/18 04:01:30;;;;;;;;;53.75;43.50;;;;;9.47;56.67;102919.69;5076685;28;45410;-68
2022/03/18 04:03:56;;;;;;;;;46.75;39.00;;;;;9.43;56.81;102927.53;5076754;27;45397;-68
2022/03/18 04:06:22;;;;;;;;;46.25;39.75;;;;;9.42;56.44;102924.03;5076443;27;45520;-68
2022/03/18 04:08:47;;;;;;;;;47.75;40.75;;;;;9.41;56.43;102930.16;5076669;27;45451;-68
2022/03/18 04:11:12;;;;;;;;;38.50;35.25;;;;;9.43;56.45;102932.78;5075949;27;45446;-69
2022/03/18 04:13:38;;;;;;;;;39.75;38.00;;;;;9.38;56.60;102930.13;5076500;28;45403;-69
2022/03/18 04:16:03;;;;;;;;;37.25;36.25;;;;;9.38;56.37;102935.38;5076352;28;45449;-68
2022/03/18 04:18:29;;;;;;;;;32.25;32.25;;;;;9.37;56.22;102932.75;5075825;27;45523;-69
2022/03/18 04:20:54;;;;;;;;;49.50;36.75;;;;;9.37;55.73;102933.63;5074869;27;45543;-68
2022/03/18 04:23:20;;;;;;;;;35.75;32.00;;;;;9.32;56.31;102929.19;5075776;27;45569;-69
2022/03/18 04:25:45;;;;;;;;;33.75;32.25;;;;;9.31;56.06;102932.72;5075803;28;45493;-69
2022/03/18 04:28:11;;;;;;;;;34.75;29.50;;;;;9.32;55.89;102932.69;5075767;27;45453;-69
2022/03/18 04:30:36;;;;;;;;;35.75;31.75;;;;;9.34;56.33;102941.47;5075929;28;45428;-68
2022/03/18 04:33:02;;;;;;;;;39.75;35.25;;;;;9.35;55.84;102940.63;5075138;27;45507;-69
2022/03/18 04:35:31;;;;;;;;;31.00;26.50;;;;;9.36;56.13;102949.38;5076142;28;45482;-69
2022/03/18 04:37:57;;;;;;;;;33.25;31.50;;;;;9.36;56.08;102952.88;5076183;27;45454;-69
2022/03/18 04:40:22;;;;;;;;;31.25;30.50;;;;;9.35;55.65;102959.00;5074390;28;45427;-69
2022/03/18 04:42:47;;;;;;;;;33.75;29.25;;;;;9.36;55.75;102960.75;5074604;28;45462;-69
2022/03/18 04:45:13;;;;;;;;;35.25;32.75;;;;;9.38;55.55;102960.78;5076138;28;46250;-69
2022/03/18 04:47:39;;;;;;;;;31.00;28.00;;;;;9.33;55.83;102962.50;5076186;28;45401;-69
2022/03/18 04:50:05;;;;;;;;;37.50;36.00;;;;;9.31;56.18;102964.22;5075138;28;45552;-68
2022/03/18 04:52:31;;;;;;;;;33.50;29.50;;;;;9.26;55.54;102966.78;5075561;28;45657;-69
2022/03/18 04:54:56;;;;;;;;;34.25;30.75;;;;;9.21;55.99;102971.13;5075639;28;45863;-69
2022/03/18 04:57:22;;;;;;;;;30.50;30.50;;;;;9.18;56.21;102965.84;5074870;27;45362;-69
2022/03/18 04:59:49;;;;;;;;;35.75;30.75;;;;;9.21;55.83;102961.50;5075418;28;45303;-69
2022/03/18 05:02:15;;;;;;;;;33.25;32.50;;;;;9.22;56.26;102967.66;5074967;27;45586;-68
2022/03/18 05:04:41;;;;;;;;;33.25;32.00;;;;;9.24;56.04;102964.19;5074921;27;45559;-69
2022/03/18 05:07:07;;;;;;;;;35.25;34.50;;;;;9.25;56.03;102959.78;5075749;27;45472;-68
2022/03/18 05:09:33;;;;;;;;;31.75;31.25;;;;;9.26;55.79;102961.53;5076675;27;45457;-69
2022/03/18 05:11:58;;;;;;;;;29.25;27.25;;;;;9.24;55.36;102964.19;5079016;27;45551;-69
2022/03/18 05:14:24;;;;;;;;;29.75;27.75;;;;;9.21;55.44;102977.25;5079284;28;45386;-69
2022/03/18 05:16:49;;;;;;;;;30.00;28.00;;;;;9.20;55.67;102987.75;5079384;27;45414;-68
2022/03/18 05:19:15;;;;;;;;;28.75;25.25;;;;;9.17;55.68;102986.00;5079477;28;45346;-69
2022/03/18 05:21:41;;;;;;;;;30.00;29.50;;;;;9.14;56.17;102978.09;5079012;27;45576;-69
2022/03/18 05:24:09;;;;;;;;;31.75;28.75;;;;;9.16;55.08;102980.72;5077206;28;45469;-69
2022/03/18 05:26:35;;;;;;;;;29.25;26.50;;;;;9.07;55.53;102985.00;5077809;27;45412;-69
2022/03/18 05:29:02;;;;;;;;;30.25;28.00;;;;;9.07;55.42;102992.88;5078923;27;45391;-69
2022/03/18 05:31:28;;;;;;;;;30.00;26.50;;;;;9.07;55.66;102997.25;5078200;27;45508;-69
2022/03/18 05:33:56;;;;;;;;;27.50;27.50;;;;;9.06;55.36;102990.25;5077574;27;45359;-69
2022/03/18 05:36:21;;;;;;;;;29.25;25.50;;;;;9.06;55.50;102995.50;5078563;27;45484;-69
2022/03/18 05:38:47;;;;;;;;;30.50;28.50;;;;;9.03;55.06;102990.25;5078645;27;45700;-69
2022/03/18 05:41:12;;;;;;;;;28.00;27.50;;;;;8.97;55.54;103004.19;5077342;28;45671;-68
2022/03/18 05:43:37;;;;;;;;;31.00;27.25;;;;;8.97;55.14;103006.81;5078221;28;47982;-69
2022/03/18 05:46:03;;;;;;;;;27.50;24.00;;;;;8.96;55.34;103001.53;5078441;28;45460;-71
2022/03/18 05:48:28;;;;;;;;;23.75;23.00;;;;;9.01;55.06;103005.97;5078722;27;45473;-69
2022/03/18 05:50:54;;;;;;;;;28.00;27.00;;;;;9.06;55.21;102995.50;5078204;28;45660;-69
2022/03/18 05:53:19;;;;;;;;;28.00;26.25;;;;;9.07;54.81;103003.38;5078644;27;45433;-69
2022/03/18 05:58:29;;;;;;;;;30.50;26.25;;;;;8.99;54.56;102999.81;5078334;27;45401;-69
2022/03/18 06:00:54;;;;;;;;;25.00;23.00;;;;;9.02;54.17;102999.84;5078328;27;45366;-69
2022/03/18 06:03:20;;;;;;;;;26.75;24.50;;;;;9.02;53.59;103002.47;5078222;28;45623;-69
2022/03/18 06:05:45;;;;;;;;;22.25;20.25;;;;;8.97;54.35;102998.94;5078003;27;45408;-69
2022/03/18 06:13:38;;;;;;;;;26.50;24.25;;;;;8.97;53.71;103014.69;5077391;27;45897;-69
2022/03/18 06:16:03;;;;;;;;;24.25;23.75;;;;;8.99;53.72;103025.19;5078017;27;45585;-69
2022/03/18 06:18:29;;;;;;;;;24.25;22.00;;;;;8.99;54.29;103028.69;5078390;27;45426;-69
2022/03/18 06:20:55;;;;;;;;;23.00;23.00;;;;;8.99;54.13;103033.06;5089828;27;45528;-69
2022/03/18 06:23:21;;;;;;;;;25.50;24.75;;;;;9.00;54.17;103027.84;5077955;28;46077;-68
2022/03/18 06:25:46;;;;;;;;;24.50;22.75;;;;;9.03;54.11;103029.63;5078195;27;45462;-68
2022/03/18 06:28:12;;;;;;;;;26.50;24.00;;;;;9.05;53.67;103031.38;5078184;28;45472;-69
2022/03/18 06:30:37;;;;;;;;;23.50;22.00;;;;;9.04;53.74;103037.47;5078175;28;45404;-67
2022/03/18 06:33:02;;;;;;;;;24.25;21.00;;;;;9.02;53.70;103036.59;5076657;27;47015;-68
2022/03/18 06:35:28;;;;;;;;;28.50;25.75;;;;;9.03;53.72;103027.00;5078015;27;45408;-68
2022/03/18 06:37:54;;;;;;;;;24.25;23.25;;;;;9.02;53.78;103027.84;5077949;27;45444;-69
2022/03/18 06:40:20;;;;;;;;;33.00;30.00;;;;;9.01;53.56;103026.97;5077435;27;45612;-68
2022/03/18 06:42:45;;;;;;;;;25.00;24.00;;;;;9.02;54.15;103038.34;5077089;28;46079;-68
2022/03/18 06:45:11;;;;;;;;;28.25;24.50;;;;;9.04;53.32;103034.84;5077793;28;45442;-69
2022/03/18 06:47:36;;;;;;;;;28.50;25.75;;;;;9.04;53.44;103036.59;5077536;28;45523;-66
2022/03/18 06:50:02;;;;;;;;;25.75;25.75;;;;;9.06;53.63;103040.13;5084700;27;45391;-69
2022/03/18 06:52:27;;;;;;;;;29.00;27.00;;;;;9.05;53.50;103043.59;5076033;27;45480;-67
2022/03/18 06:54:53;;;;;;;;;24.50;24.25;;;;;9.06;53.50;103042.75;5077384;27;45426;-67
2022/03/18 06:57:19;;;;;;;;;34.25;29.25;;;;;9.05;53.94;103035.72;5076735;28;45462;-66
2022/03/18 06:59:45;;;;;;;;;24.00;23.75;;;;;9.05;53.60;103025.22;5077456;27;45382;-65
2022/03/18 07:02:10;;;;;;;;;30.25;29.50;;;;;9.04;53.86;103024.34;5074308;28;46922;-65
2022/03/18 07:04:36;;;;;;;;;30.50;25.00;;;;;9.01;53.48;103024.34;5077343;27;45444;-65
2022/03/18 07:07:01;;;;;;;;;21.50;18.75;;;;;9.03;53.40;103025.25;5077060;28;45500;-64
2022/03/18 07:09:27;;;;;;;;;29.25;24.00;;;;;9.02;53.19;103015.59;5076958;28;45414;-70
2022/03/18 07:11:52;;;;;;;;;30.00;26.50;;;;;9.04;53.15;103024.34;5076752;27;46520;-65
2022/03/18 07:14:18;;;;;;;;;29.75;24.50;;;;;9.04;52.89;103026.97;5076949;27;45433;-70
2022/03/18 07:19:28;;;;;;;;;27.50;22.50;;;;;9.00;52.62;103037.44;5075853;28;45403;-71
2022/03/18 07:21:54;;;;;;;;;15.75;15.75;;;;;9.00;52.15;103033.09;5076164;28;45481;-71
2022/03/18 07:24:19;;;;;;;;;21.00;21.00;;;;;8.99;52.15;103027.81;5076581;28;45387;-72
2022/03/18 07:26:44;;;;;;;;;22.75;21.50;;;;;8.84;52.09;103003.16;5074761;27;45469;-70
2022/03/18 07:29:10;;;;;;;;;24.50;20.25;;;;;9.00;52.16;103019.97;5076359;27;45352;-70
2022/03/18 07:31:35;;;;;;;;;21.00;19.75;;;;;9.05;52.16;103033.09;5075806;27;46080;-70
2022/03/18 07:34:00;;;;;;;;;24.50;20.00;;;;;9.08;51.77;103025.28;5076224;27;45505;-70
2022/03/18 07:36:26;;;;;;;;;25.00;22.75;;;;;9.12;52.46;103036.69;5076723;28;45513;-69
2022/03/18 07:38:51;;;;;;;;;26.00;24.50;;;;;9.10;51.45;103017.41;5074688;28;45414;-70
2022/03/18 07:41:17;;;;;;;;;25.25;24.50;;;;;9.14;51.94;103024.47;5076411;27;46321;-70
2022/03/18 07:43:42;;;;;;;;;23.75;20.75;;;;;9.14;52.09;103027.97;5074748;28;45414;-70
2022/03/18 07:46:08;;;;;;;;;25.75;22.50;;;;;9.16;51.96;103027.97;5076457;28;45432;-70
2022/03/18 07:48:33;;;;;;;;;28.75;24.75;;;;;9.18;51.97;103021.88;5076389;28;45605;-71
2022/03/18 07:50:59;;;;;;;;;29.50;25.75;;;;;9.20;51.61;103028.03;5076295;28;46020;-71
2022/03/18 07:53:24;;;;;;;;;27.25;26.50;;;;;9.24;51.41;103026.28;5076228;27;45521;-70
2022/03/18 07:55:49;;;;;;;;;30.75;25.75;;;;;9.23;51.49;103028.03;5076254;27;45437;-71
2022/03/18 07:58:15;;;;;;;;;23.25;23.25;;;;;9.27;51.71;103029.84;5075770;28;45466;-70
2022/03/18 08:00:40;;;;;;;;;26.25;23.75;;;;;9.28;51.37;103028.97;5075998;27;45386;-70
2022/03/18 08:03:06;;;;;;;;;24.75;24.75;;;;;9.26;51.21;103017.56;5074350;28;45444;-71
2022/03/18 08:05:31;;;;;;;;;23.50;22.50;;;;;9.33;51.20;103043.91;5075992;27;45437;-70
2022/03/18 08:07:58;;;;;;;;;25.25;25.25;;;;;9.37;51.53;103041.28;5076092;27;45545;-70
2022/03/18 08:10:23;;;;;;;;;26.25;26.25;;;;;9.38;51.45;103027.31;5075820;28;45686;-71
2022/03/18 08:12:49;;;;;;;;;26.75;25.25;;;;;9.42;50.69;103044.84;5075809;28;45433;-70
2022/03/18 08:15:17;;;;;;;;;29.25;26.00;;;;;9.43;50.86;103044.00;5076130;27;45468;-71
2022/03/18 08:17:43;;;;;;;;;25.75;25.75;;;;;9.45;50.80;103042.25;5075412;28;45516;-70
2022/03/18 08:20:12;;;;;;;;;27.25;27.25;;;;;9.47;50.43;103040.50;5075717;27;45421;-70
2022/03/18 08:22:38;;;;;;;;;23.25;21.75;;;;;9.48;50.97;103039.66;5075681;27;45579;-71
2022/03/18 08:25:04;;;;;;;;;25.50;23.00;;;;;9.55;50.55;103047.59;5075503;28;45469;-71
2022/03/18 08:27:32;;;;;;;;;27.75;25.75;;;;;9.55;50.21;103051.09;5074419;28;45381;-71
2022/03/18 08:29:59;;;;;;;;;31.75;29.75;;;;;9.55;49.94;103056.34;5075577;28;45931;-71
2022/03/18 08:32:26;;;;;;;;;26.00;25.50;;;;;9.60;49.92;103053.75;5075625;28;45453;-71
2022/03/18 08:34:52;;;;;;;;;27.75;24.75;;;;;9.61;50.14;103060.75;5075671;27;45491;-72
2022/03/18 08:37:56;;;;;;;;;21.50;20.75;;;;;9.61;50.04;103052.88;5075410;28;45567;-70
2022/03/18 08:40:04;;;;;;;;;27.00;27.00;;;;;9.67;50.29;103066.06;5075322;27;45539;-71
2022/03/18 08:42:30;;;;;;;;;24.25;23.50;;;;;9.69;49.65;103053.81;5075361;27;45465;-71
2022/03/18 08:44:55;;;;;;;;;26.25;24.25;;;;;9.68;49.82;103055.56;5075321;27;45474;-70
2022/03/18 08:47:23;;;;;;;;;29.25;26.50;;;;;9.71;49.49;103059.97;5075619;28;45442;-71
2022/03/18 08:49:48;;;;;;;;;28.00;25.25;;;;;9.72;49.78;103053.84;5074136;27;46609;-70
2022/03/18 08:52:14;;;;;;;;;27.00;26.00;;;;;9.77;49.37;103062.66;5073847;28;45917;-71
2022/03/18 08:54:39;;;;;;;;;24.50;22.50;;;;;9.82;48.92;103050.41;5075547;27;45550;-70
2022/03/18 08:57:05;;;;;;;;;25.50;22.00;;;;;9.85;49.09;103041.69;5075375;27;45496;-70
2022/03/18 08:59:30;;;;;;;;;24.50;22.25;;;;;9.85;48.75;103033.78;5075141;27;45371;-71
2022/03/18 09:01:56;;;;;;;;;22.25;22.25;;;;;9.92;48.42;103057.50;5075029;27;45516;-71
2022/03/18 09:04:21;;;;;;;;;20.50;20.00;;;;;9.90;48.28;103051.34;5075285;27;45440;-71
2022/03/18 09:06:47;;;;;;;;;25.50;23.00;;;;;9.92;48.55;103060.13;5075328;27;45493;-71
2022/03/18 09:09:12;;;;;;;;;24.50;23.00;;;;;9.94;47.04;103053.16;5075172;27;45465;-71
2022/03/18 09:11:37;;;;;;;;;24.50;21.50;;;;;9.96;48.68;103048.75;5074902;28;45433;-71
2022/03/18 09:14:03;;;;;;;;;22.75;20.75;;;;;10.03;47.87;103056.72;5075239;28;45517;-70
2022/03/18 09:16:30;;;;;;;;;42.25;38.00;;;;;10.08;47.65;103060.25;5075253;27;45535;-70
2022/03/18 09:18:55;;;;;;;;;23.25;18.25;;;;;10.13;47.64;103063.78;5074715;28;46241;-70
2022/03/18 09:21:21;;;;;;;;;18.75;18.75;;;;;10.16;47.05;103059.41;5074880;28;45388;-70
2022/03/18 09:23:46;;;;;;;;;19.25;19.00;;;;;10.18;46.97;103057.69;5074980;28;45372;-70
2022/03/18 09:26:11;;;;;;;;;16.50;16.50;;;;;10.21;46.12;103056.81;5074966;27;45442;-72
2022/03/18 09:28:37;;;;;;;;;25.25;21.75;;;;;10.24;45.29;103054.22;5074981;27;45993;-72
2022/03/18 09:31:03;;;;;;;;;16.50;15.50;;;;;10.23;45.26;103057.69;5075028;27;45378;-71
2022/03/18 09:33:28;;;;;;;;;22.75;19.50;;;;;10.25;45.33;103055.94;5075251;27;45382;-71
2022/03/18 09:35:54;;;;;;;;;15.00;15.00;;;;;10.28;45.37;103063.00;5075067;28;45616;-71
2022/03/18 09:38:19;;;;;;;;;20.50;16.50;;;;;10.34;44.62;103065.66;5074996;27;45512;-72
2022/03/18 09:40:44;;;;;;;;;18.50;17.25;;;;;10.35;44.06;103057.78;5075033;27;45488;-71
2022/03/18 09:43:10;;;;;;;;;18.50;16.75;;;;;10.38;43.77;103063.06;5075371;27;45525;-71
2022/03/18 09:45:38;;;;;;;;;16.75;16.75;;;;;10.41;44.00;103046.44;5073495;28;45430;-72
2022/03/18 09:48:09;;;;;;;;;18.50;16.50;;;;;10.46;43.50;103062.25;5074810;27;45452;-71
2022/03/18 09:50:37;;;;;;;;;18.75;18.75;;;;;10.49;43.06;103054.34;5074595;27;45449;-71
2022/03/18 09:53:03;;;;;;;;;14.25;14.25;;;;;10.54;43.11;103055.25;5074632;28;45551;-72
2022/03/18 09:55:30;;;;;;;;;16.75;16.75;;;;;10.59;42.68;103058.78;5075414;27;45498;-71
2022/03/18 09:57:55;;;;;;;;;15.25;14.25;;;;;10.62;42.24;103053.53;5077486;27;45474;-71
2022/03/18 10:00:21;;;;;;;;;18.75;15.50;;;;;10.65;41.59;103055.31;5077903;28;45416;-71
2022/03/18 10:03:09;;;;;;;;;18.00;14.75;;;;;10.71;41.55;103052.69;5077919;28;45788;-70
2022/03/18 10:05:44;;;;;;;;;20.00;18.50;;;;;10.74;41.68;103056.19;5077960;27;45537;-71
2022/03/18 10:08:10;;;;;;;;;18.25;15.75;;;;;10.76;42.03;103051.81;5077801;27;45546;-71
2022/03/18 10:10:46;;;;;;;;;18.25;14.00;;;;;10.86;41.77;103049.25;5077701;27;45500;-71
2022/03/18 10:13:13;;;;;;;;;21.00;16.00;;;;;10.98;41.11;103047.50;5077722;27;45402;-73
2022/03/18 10:15:39;;;;;;;;;16.25;16.00;;;;;11.19;40.68;103051.94;5077518;28;45389;-71
2022/03/18 10:18:04;;;;;;;;;14.50;14.00;;;;;11.38;40.95;103044.91;5077321;27;45342;-71
2022/03/18 10:20:32;;;;;;;;;10.25;9.00;;;;;11.59;40.57;103059.00;5077710;27;45413;-71
2022/03/18 10:23:16;;;;;;;;;15.75;12.50;;;;;11.91;40.20;103049.31;5078032;28;45542;-71
2022/03/18 10:25:53;;;;;;;;;14.50;14.50;;;;;12.22;38.97;103051.88;5077613;27;45378;-72
2022/03/18 10:28:43;;;;;;;;;14.33;11.33;;;;;12.38;38.19;103040.44;5076344;27;48322;-71
2022/03/18 10:31:21;;;;;;;;;16.00;15.67;;;;;12.40;37.16;103035.13;5076388;27;45426;-71
2022/03/18 10:37:04;;;;;;;;;14.00;14.00;;;;;12.32;36.50;103037.78;5077514;27;45422;-70
2022/03/18 10:39:29;;;;;;;;;13.33;13.33;;;;;12.11;37.03;103036.09;5077112;27;45316;-70
2022/03/18 10:41:55;;;;;;;;;16.00;14.67;;;;;12.06;38.12;103023.78;5075855;27;45883;-70
2022/03/18 10:44:21;;;;;;;;;35.50;30.25;;;;;12.02;38.03;103024.69;5077445;28;45450;-70
2022/03/18 10:46:49;;;;;;;;;13.33;13.33;;;;;12.00;37.08;103021.19;5077226;27;45467;-70
2022/03/18 10:49:14;;;;;;;;;16.00;12.00;;;;;12.00;37.70;103029.09;5077131;27;45927;-71
2022/03/18 10:51:40;;;;;;;;;12.33;10.33;;;;;11.97;37.09;103016.78;5077217;27;45597;-70
2022/03/18 10:54:06;;;;;;;;;24.75;24.25;;;;;12.01;37.33;103028.19;5075915;27;45446;-70
2022/03/18 10:56:54;;;;;;;;;9.00;8.00;;;;;11.99;37.33;103027.34;5077172;27;45459;-70
2022/03/18 10:59:19;;;;;;;;;12.33;11.00;;;;;11.96;35.93;103019.44;5076928;28;46610;-70
2022/03/18 11:01:47;;;;;;;;;12.67;10.00;;;;;11.96;36.27;103019.44;5076880;28;45562;-70
2022/03/18 11:04:14;;;;;;;;;10.00;9.33;;;;;11.97;35.56;103034.38;5077037;28;45450;-70
2022/03/18 11:06:42;;;;;;;;;10.00;9.33;;;;;11.97;35.91;103026.47;5076912;27;45571;-71
2022/03/18 11:09:11;;;;;;;;;12.33;11.67;;;;;11.96;35.23;103019.44;5076612;27;45499;-71
2022/03/18 11:11:41;;;;;;;;;12.67;9.67;;;;;11.95;34.70;103013.25;5076811;27;45459;-70
2022/03/18 11:14:10;;;;;;;;;11.00;11.00;;;;;11.96;34.69;103015.03;5075573;27;45478;-70
2022/03/18 11:16:40;;;;;;;;;10.67;10.67;;;;;11.99;35.47;103014.16;5076794;27;45546;-70
2022/03/18 11:19:09;;;;;;;;;10.67;9.67;;;;;12.02;34.06;103015.03;5076729;27;45369;-70
2022/03/18 11:21:38;;;;;;;;;10.00;10.00;;;;;12.05;35.23;103011.50;5076560;27;45518;-70
2022/03/18 11:24:06;;;;;;;;;12.00;12.00;;;;;12.07;34.09;103007.97;5076586;27;45500;-69
2022/03/18 11:26:34;;;;;;;;;11.67;11.67;;;;;12.10;34.58;103005.31;5076354;27;45417;-71
2022/03/18 11:29:16;;;;;;;;;12.67;10.00;;;;;12.14;34.56;103003.53;5076633;27;45568;-71
2022/03/18 11:31:42;;;;;;;;;10.00;10.00;;;;;12.15;34.02;103007.97;5076347;27;45390;-71
2022/03/18 11:34:14;;;;;;;;;10.00;9.00;;;;;12.18;34.70;103007.94;5075031;28;45395;-70